East Waterford, Pennsylvania
Current Conditions -  °F | °C
As of 1:53 PM on Thursday 18 Dec 2014 (Local Time) from KUNV Reporting Station
Overcast Overcast  
Wind Chill: 19°   Ceiling: 1800
Heat Index: 30°   Visibility: 10mi
Dew Point: 25°   Wind: 16mph
Humidity: 80%   Direction: 280°W
Pressure: 30.07"   Gusts: NA
Location:  40.37°N, 77.6°W
Report Text: KUNV 181853Z 28014KT 10SM OVC018 M01/M04 A3007
Loading
Personal Weather Stations






























Interactive Weather Map New forecast layout! Learn more

10-Day Weather Forecast

Advertisements
Track Severe Weather on mobile